createdAt,value
2023-05-20T00:00:53.618Z,95692.95
2023-05-20T00:01:59.842Z,95690.45
2023-05-20T00:03:07.264Z,95695.51
2023-05-20T00:04:14.196Z,95697.56
2023-05-20T00:05:21.112Z,95695.05
2023-05-20T00:06:27.346Z,95696.33
2023-05-20T00:07:33.687Z,95695.94
2023-05-20T00:08:39.654Z,95693.55
2023-05-20T00:09:46.748Z,95697.44
2023-05-20T00:10:52.872Z,95696.11
2023-05-20T00:11:58.979Z,95697.42
2023-05-20T00:13:06.960Z,95695.23
2023-05-20T00:14:13.082Z,95693.10
2023-05-20T00:15:19.599Z,95691.00
2023-05-20T00:16:26.133Z,95694.80
2023-05-20T00:17:32.772Z,95694.38
2023-05-20T00:18:39.257Z,95693.30
2023-05-20T00:19:46.026Z,95694.09
2023-05-20T00:20:51.816Z,95688.69
2023-05-20T00:21:58.141Z,95685.38
2023-05-20T00:23:04.578Z,95685.89
2023-05-20T00:24:11.080Z,95687.99
2023-05-20T00:25:18.177Z,95682.55
2023-05-20T00:26:25.148Z,95684.34
2023-05-20T00:27:31.247Z,95684.81
2023-05-20T00:28:37.415Z,95685.30
2023-05-20T00:29:43.638Z,95682.60
2023-05-20T00:30:49.907Z,95682.48
2023-05-20T00:31:56.186Z,95681.36
2023-05-20T00:33:02.993Z,95679.28
2023-05-20T00:34:10.381Z,95678.94
2023-05-20T00:35:16.766Z,95678.89
2023-05-20T00:36:22.832Z,95675.31
2023-05-20T00:37:29.379Z,95673.70
2023-05-20T00:38:37.764Z,95669.45
2023-05-20T00:39:45.049Z,95671.18
2023-05-20T00:40:51.275Z,95673.00
2023-05-20T00:42:00.729Z,95670.40
2023-05-20T00:43:06.981Z,95669.88
2023-05-20T00:44:13.437Z,95673.48
2023-05-20T00:45:20.509Z,95675.42
2023-05-20T00:46:30.485Z,95676.26
2023-05-20T00:47:39.442Z,95677.80
2023-05-20T00:48:45.219Z,95674.88
2023-05-20T00:49:53.347Z,95670.80
2023-05-20T00:50:59.666Z,95667.61
2023-05-20T00:52:08.114Z,95668.23
2023-05-20T00:53:17.730Z,95665.45
2023-05-20T00:54:24.368Z,95671.30
2023-05-20T00:55:32.037Z,95673.27
2023-05-20T00:56:39.272Z,95672.86
2023-05-20T00:57:46.099Z,95676.52
2023-05-20T00:58:52.976Z,95674.81
2023-05-20T01:00:00.296Z,95676.27
2023-05-20T01:01:06.917Z,95676.38
2023-05-20T01:02:13.831Z,95671.92
2023-05-20T01:03:20.186Z,95671.84
2023-05-20T01:04:26.826Z,95672.70
2023-05-20T01:05:34.095Z,95668.33
2023-05-20T01:06:40.861Z,95670.14
2023-05-20T01:07:47.033Z,95670.23
2023-05-20T01:08:52.777Z,95676.80
2023-05-20T01:09:59.933Z,95676.10
2023-05-20T01:11:09.411Z,95672.40
2023-05-20T01:12:21.584Z,95677.30
2023-05-20T01:13:34.562Z,95676.30
2023-05-20T01:14:48.495Z,95673.29
2023-05-20T01:15:57.292Z,95674.63
2023-05-20T01:17:11.051Z,95675.63
2023-05-20T01:18:18.834Z,95679.25
2023-05-20T01:19:38.765Z,95679.83
2023-05-20T01:20:47.597Z,95683.24
2023-05-20T01:21:55.491Z,95683.49
2023-05-20T01:23:01.890Z,95681.27
2023-05-20T01:24:09.125Z,95679.44
2023-05-20T01:25:15.421Z,95676.55
2023-05-20T01:26:27.380Z,95675.98
2023-05-20T01:27:34.012Z,95671.54
2023-05-20T01:28:40.206Z,95667.98
2023-05-20T01:29:48.541Z,95667.67
2023-05-20T01:30:57.072Z,95665.84
2023-05-20T01:32:09.318Z,95668.16
2023-05-20T01:33:19.413Z,95666.00
2023-05-20T01:34:26.028Z,95673.23
2023-05-20T01:35:34.116Z,95674.63
2023-05-20T01:36:43.198Z,95672.17
2023-05-20T01:37:50.711Z,95671.92
2023-05-20T01:38:57.898Z,95669.09
2023-05-20T01:40:08.365Z,95666.51
2023-05-20T01:41:15.200Z,95665.11
2023-05-20T01:42:21.466Z,95669.01
2023-05-20T01:43:29.283Z,95667.34
2023-05-20T01:44:35.358Z,95665.31
2023-05-20T01:45:43.613Z,95667.46
2023-05-20T01:46:52.565Z,95666.63
2023-05-20T01:47:57.096Z,95667.79
2023-05-20T01:49:03.027Z,95665.70
2023-05-20T01:50:11.443Z,95667.64
2023-05-20T01:51:18.104Z,95663.91
2023-05-20T01:52:25.247Z,95666.14
2023-05-20T01:53:32.237Z,95663.20
2023-05-20T01:54:39.092Z,95663.59
2023-05-20T01:55:45.239Z,95660.01
2023-05-20T01:56:52.004Z,95662.04
2023-05-20T01:57:57.756Z,95664.23
2023-05-20T01:59:03.619Z,95662.30
2023-05-20T02:00:11.884Z,95662.14
2023-05-20T02:01:18.092Z,95659.92
2023-05-20T02:02:24.429Z,95663.16
2023-05-20T02:03:30.621Z,95662.95
2023-05-20T02:04:36.539Z,95665.06
2023-05-20T02:05:42.994Z,95666.61
2023-05-20T02:06:49.751Z,95671.83
2023-05-20T02:07:56.118Z,95667.26
2023-05-20T02:09:02.158Z,95665.02
2023-05-20T02:10:11.685Z,95665.77
2023-05-20T02:11:17.846Z,95663.59
2023-05-20T02:12:23.936Z,95664.32
2023-05-20T02:13:30.323Z,95662.33
2023-05-20T02:14:36.961Z,95661.43
2023-05-20T02:15:45.026Z,95663.52
2023-05-20T02:16:51.093Z,95668.09
2023-05-20T02:17:58.356Z,95664.45
2023-05-20T02:19:05.979Z,95666.15
2023-05-20T02:20:14.324Z,95664.61
2023-05-20T02:21:22.339Z,95668.54
2023-05-20T02:22:29.192Z,95666.05
2023-05-20T02:23:35.459Z,95664.45
2023-05-20T02:24:43.744Z,95665.27
2023-05-20T02:25:49.917Z,95666.89
2023-05-20T02:26:57.517Z,95668.98
2023-05-20T02:28:06.508Z,95666.48
2023-05-20T02:29:12.794Z,95669.01
2023-05-20T02:30:19.513Z,95669.88
2023-05-20T02:31:26.080Z,95667.86
2023-05-20T02:32:33.835Z,95669.47
2023-05-20T02:33:39.460Z,95670.92
2023-05-20T02:34:45.583Z,95671.50
2023-05-20T02:35:51.650Z,95675.52
2023-05-20T02:36:57.891Z,95674.65
2023-05-20T02:38:03.643Z,95676.20
2023-05-20T02:39:10.373Z,95677.77
2023-05-20T02:40:17.663Z,95678.64
2023-05-20T02:41:23.643Z,95680.48
2023-05-20T02:42:29.395Z,95678.29
2023-05-20T02:43:36.542Z,95683.29
2023-05-20T02:44:42.331Z,95682.64
2023-05-20T02:45:49.699Z,95684.15
2023-05-20T02:46:55.840Z,95681.20
2023-05-20T02:48:02.142Z,95682.94
2023-05-20T02:49:09.229Z,95687.00
2023-05-20T02:50:15.600Z,95686.14
2023-05-20T02:51:21.887Z,95684.17
2023-05-20T02:52:28.520Z,95685.23
2023-05-20T02:53:34.374Z,95684.68
2023-05-20T02:54:40.763Z,95685.14
2023-05-20T02:55:49.126Z,95685.73
2023-05-20T02:56:55.368Z,95686.36
2023-05-20T02:58:01.250Z,95681.77
2023-05-20T02:59:08.559Z,95684.37
2023-05-20T03:00:16.522Z,95682.40
2023-05-20T03:01:23.618Z,95682.27
2023-05-20T03:02:29.919Z,95685.48
2023-05-20T03:03:44.003Z,95682.30
2023-05-20T03:04:50.748Z,95682.21
2023-05-20T03:05:57.902Z,95686.46
2023-05-20T03:07:04.684Z,95681.35
2023-05-20T03:08:12.877Z,95689.34
2023-05-20T03:09:20.223Z,95690.56
2023-05-20T03:10:27.535Z,95691.14
2023-05-20T03:11:33.637Z,95692.09
2023-05-20T03:12:40.153Z,95693.41
2023-05-20T03:13:46.918Z,95694.20
2023-05-20T03:14:55.456Z,95694.58
2023-05-20T03:16:01.939Z,95691.91
2023-05-20T03:17:08.475Z,95690.40
2023-05-20T03:18:15.425Z,95692.71
2023-05-20T03:19:22.807Z,95691.21
2023-05-20T03:20:32.889Z,95690.52
2023-05-20T03:21:39.650Z,95692.34
2023-05-20T03:22:45.706Z,95694.91
2023-05-20T03:23:52.132Z,95690.84
2023-05-20T03:24:58.531Z,95692.83
2023-05-20T03:26:07.004Z,95696.06
2023-05-20T03:27:13.502Z,95695.48
2023-05-20T03:28:19.777Z,95697.45
2023-05-20T03:29:26.968Z,95695.95
2023-05-20T03:30:33.116Z,95697.64
2023-05-20T03:31:39.372Z,95695.38
2023-05-20T03:32:52.093Z,95703.56
2023-05-20T03:33:58.424Z,95704.33
2023-05-20T03:35:05.883Z,95705.63
2023-05-20T03:36:12.157Z,95710.14
2023-05-20T03:37:18.148Z,95712.22
2023-05-20T03:38:24.353Z,95713.71
2023-05-20T03:39:30.374Z,95715.48
2023-05-20T03:40:37.103Z,95710.27
2023-05-20T03:41:44.068Z,95717.77
2023-05-20T03:42:52.621Z,95715.81
2023-05-20T03:43:58.706Z,95715.77
2023-05-20T03:45:07.136Z,95717.23
2023-05-20T03:46:13.270Z,95717.23
2023-05-20T03:47:20.015Z,95717.39
2023-05-20T03:48:26.153Z,95716.79
2023-05-20T03:49:32.980Z,95717.95
2023-05-20T03:50:39.988Z,95717.98
2023-05-20T03:51:46.520Z,95723.20
2023-05-20T03:52:52.561Z,95724.61
2023-05-20T03:53:58.729Z,95727.00
2023-05-20T03:55:06.527Z,95728.39
2023-05-20T03:56:12.897Z,95729.48
2023-05-20T03:57:19.954Z,95731.43
2023-05-20T03:58:26.977Z,95729.85
2023-05-20T03:59:33.191Z,95725.23
2023-05-20T04:00:39.841Z,95726.55
2023-05-20T04:01:46.694Z,95729.27
2023-05-20T04:02:52.842Z,95734.95
2023-05-20T04:04:00.428Z,95733.83
2023-05-20T04:05:10.538Z,95734.25
2023-05-20T04:06:16.656Z,95733.31
2023-05-20T04:07:22.716Z,95734.80
2023-05-20T04:08:29.281Z,95734.23
2023-05-20T04:09:35.167Z,95730.70
2023-05-20T04:10:43.263Z,95733.63
2023-05-20T04:11:49.311Z,95732.57
2023-05-20T04:12:55.579Z,95735.79
2023-05-20T04:14:01.705Z,95732.41
2023-05-20T04:15:11.894Z,95729.06
2023-05-20T04:16:18.434Z,95729.74
2023-05-20T04:17:24.642Z,95730.23
2023-05-20T04:18:31.905Z,95727.52
2023-05-20T04:19:38.369Z,95730.23
2023-05-20T04:20:45.893Z,95724.19
2023-05-20T04:21:51.751Z,95725.23
2023-05-20T04:22:58.436Z,95724.45
2023-05-20T04:24:04.855Z,95725.89
2023-05-20T04:25:12.497Z,95727.95
2023-05-20T04:26:19.028Z,95727.58
2023-05-20T04:27:25.902Z,95725.11
2023-05-20T04:28:31.976Z,95724.80
2023-05-20T04:29:38.812Z,95724.25
2023-05-20T04:30:45.910Z,95724.30
2023-05-20T04:31:53.768Z,95720.83
2023-05-20T04:33:04.180Z,95720.29
2023-05-20T04:34:10.966Z,95712.40
2023-05-20T04:35:17.250Z,95706.11
2023-05-20T04:36:28.679Z,95708.48
2023-05-20T04:37:35.502Z,95710.94
2023-05-20T04:38:42.364Z,95711.73
2023-05-20T04:39:50.016Z,95717.72
2023-05-20T04:40:58.487Z,95720.16
2023-05-20T04:42:05.394Z,95723.88
2023-05-20T04:43:12.285Z,95724.98
2023-05-20T04:44:17.985Z,95722.89
2023-05-20T04:45:24.059Z,95725.08
2023-05-20T04:46:30.191Z,95725.15
2023-05-20T04:47:39.358Z,95724.05
2023-05-20T04:48:45.999Z,95724.69
2023-05-20T04:49:53.100Z,95727.48
2023-05-20T04:50:58.916Z,95730.88
2023-05-20T04:52:05.749Z,95732.28
2023-05-20T04:53:11.689Z,95730.73
2023-05-20T04:54:20.452Z,95729.31
2023-05-20T04:55:28.007Z,95732.54
2023-05-20T04:56:33.987Z,95729.88
2023-05-20T04:57:42.501Z,95728.06
2023-05-20T04:58:50.191Z,95729.11
2023-05-20T04:59:59.464Z,95734.17
2023-05-20T05:01:06.616Z,95735.23
2023-05-20T05:02:12.750Z,95730.90
2023-05-20T05:03:19.561Z,95731.69
2023-05-20T05:04:26.466Z,95728.79
2023-05-20T05:05:33.136Z,95724.16
2023-05-20T05:06:39.400Z,95724.70
2023-05-20T05:07:45.811Z,95726.62
2023-05-20T05:08:51.550Z,95727.66
2023-05-20T05:09:57.723Z,95729.96
2023-05-20T05:11:05.626Z,95730.23
2023-05-20T05:12:11.867Z,95728.36
2023-05-20T05:13:17.943Z,95725.25
2023-05-20T05:14:24.524Z,95726.50
2023-05-20T05:15:31.254Z,95727.02
2023-05-20T05:16:37.499Z,95725.89
2023-05-20T05:17:43.429Z,95726.04
2023-05-20T05:18:49.906Z,95727.09
2023-05-20T05:19:56.281Z,95726.09
2023-05-20T05:21:04.478Z,95726.58
2023-05-20T05:22:11.196Z,95727.16
2023-05-20T05:23:17.540Z,95726.73
2023-05-20T05:24:23.213Z,95728.19
2023-05-20T05:25:29.620Z,95724.96
2023-05-20T05:26:35.920Z,95728.60
2023-05-20T05:27:42.962Z,95724.02
2023-05-20T05:28:49.128Z,95725.44
2023-05-20T05:29:55.101Z,95719.11
2023-05-20T05:31:02.862Z,95717.20
2023-05-20T05:32:10.247Z,95717.23
2023-05-20T05:33:17.700Z,95713.45
2023-05-20T05:34:23.839Z,95716.02
2023-05-20T05:35:30.189Z,95713.13
2023-05-20T05:36:38.452Z,95720.70
2023-05-20T05:37:44.532Z,95721.23
2023-05-20T05:38:51.161Z,95718.96
2023-05-20T05:39:57.386Z,95725.45
2023-05-20T05:41:04.292Z,95729.29
2023-05-20T05:42:10.873Z,95731.32
2023-05-20T05:43:16.875Z,95729.71
2023-05-20T05:44:23.400Z,95732.91
2023-05-20T05:45:29.924Z,95731.55
2023-05-20T05:46:36.288Z,95728.52
2023-05-20T05:47:43.125Z,95728.73
2023-05-20T05:48:51.711Z,95734.55
2023-05-20T05:49:58.265Z,95732.82
2023-05-20T05:51:04.930Z,95733.88
2023-05-20T05:52:11.289Z,95738.39
2023-05-20T05:53:17.215Z,95736.55
2023-05-20T05:54:23.376Z,95738.42
2023-05-20T05:55:29.948Z,95735.34
2023-05-20T05:56:36.080Z,95742.27
2023-05-20T05:57:42.077Z,95742.52
2023-05-20T05:58:48.647Z,95736.64
2023-05-20T05:59:56.055Z,95737.72
2023-05-20T06:01:02.366Z,95732.52
2023-05-20T06:02:11.129Z,95733.67
2023-05-20T06:03:18.082Z,95730.94
2023-05-20T06:04:24.875Z,95737.32
2023-05-20T06:05:31.451Z,95735.49
2023-05-20T06:06:38.129Z,95732.24
2023-05-20T06:07:46.088Z,95730.98
2023-05-20T06:08:52.616Z,95731.61
2023-05-20T06:09:59.603Z,95729.16
2023-05-20T06:11:06.874Z,95731.88
2023-05-20T06:12:13.972Z,95730.21
2023-05-20T06:13:22.906Z,95734.31
2023-05-20T06:14:29.254Z,95731.42
2023-05-20T06:15:36.912Z,95732.81
2023-05-20T06:16:44.454Z,95732.58
2023-05-20T06:17:53.554Z,95729.91
2023-05-20T06:19:02.663Z,95729.42
2023-05-20T06:20:12.467Z,95727.65
2023-05-20T06:21:19.209Z,95727.61
2023-05-20T06:22:24.950Z,95723.79
2023-05-20T06:23:31.627Z,95720.14
2023-05-20T06:24:38.004Z,95718.86
2023-05-20T06:25:44.303Z,95720.06
2023-05-20T06:26:51.192Z,95716.97
2023-05-20T06:27:57.199Z,95715.21
2023-05-20T06:29:03.613Z,95711.20
2023-05-20T06:30:13.628Z,95715.71
2023-05-20T06:31:19.808Z,95712.91
2023-05-20T06:32:25.842Z,95712.16
2023-05-20T06:33:32.305Z,95715.49
2023-05-20T06:34:38.809Z,95716.95
2023-05-20T06:35:45.006Z,95716.81
2023-05-20T06:36:50.783Z,95717.39
2023-05-20T06:37:56.936Z,95717.16
2023-05-20T06:39:06.519Z,95719.77
2023-05-20T06:40:14.714Z,95717.05
2023-05-20T06:41:22.549Z,95715.63
2023-05-20T06:42:28.753Z,95717.76
2023-05-20T06:43:34.919Z,95717.88
2023-05-20T06:44:40.850Z,95711.27
2023-05-20T06:45:51.573Z,95710.16
2023-05-20T06:46:59.941Z,95714.41
2023-05-20T06:48:10.319Z,95717.13
2023-05-20T06:49:16.770Z,95711.98
2023-05-20T06:50:23.556Z,95706.45
2023-05-20T06:51:31.240Z,95710.13
2023-05-20T06:52:37.591Z,95708.89
2023-05-20T06:53:46.187Z,95700.64
2023-05-20T06:54:52.205Z,95699.45
2023-05-20T06:55:58.476Z,95699.63
2023-05-20T06:57:06.092Z,95697.88
2023-05-20T06:58:11.988Z,95695.04
2023-05-20T06:59:18.301Z,95691.45
2023-05-20T07:00:24.636Z,95688.19
2023-05-20T07:01:30.414Z,95682.19
2023-05-20T07:02:36.404Z,95687.70
2023-05-20T07:03:44.307Z,95685.90
2023-05-20T07:04:51.254Z,95687.63
2023-05-20T07:05:57.130Z,95685.83
2023-05-20T07:07:04.478Z,95686.85
2023-05-20T07:08:11.418Z,95687.73
2023-05-20T07:09:18.044Z,95688.15
2023-05-20T07:10:24.396Z,95692.20
2023-05-20T07:11:30.255Z,95689.52
2023-05-20T07:12:37.132Z,95692.42
2023-05-20T07:13:43.567Z,95694.13
2023-05-20T07:14:49.509Z,95692.25
2023-05-20T07:15:55.454Z,95692.54
2023-05-20T07:17:02.383Z,95691.43
2023-05-20T07:18:16.416Z,95693.53
2023-05-20T07:19:22.916Z,95692.25
2023-05-20T07:20:29.767Z,95692.94
2023-05-20T07:21:36.886Z,95696.05
2023-05-20T07:22:46.010Z,95693.71
2023-05-20T07:23:50.163Z,95688.79
2023-05-20T07:24:56.366Z,95687.80
2023-05-20T07:26:03.703Z,95690.27
2023-05-20T07:27:09.664Z,95685.17
2023-05-20T07:28:18.908Z,95683.11
2023-05-20T07:29:25.096Z,95683.23
2023-05-20T07:30:31.214Z,95680.42
2023-05-20T07:31:38.415Z,95681.59
2023-05-20T07:32:44.652Z,95681.02
2023-05-20T07:33:51.942Z,95683.93
2023-05-20T07:34:58.005Z,95684.39
2023-05-20T07:36:04.103Z,95686.29
2023-05-20T07:37:13.480Z,95680.52
2023-05-20T07:38:19.803Z,95680.08
2023-05-20T07:39:26.614Z,95679.40
2023-05-20T07:40:34.217Z,95682.05
2023-05-20T07:41:40.981Z,95682.14
2023-05-20T07:42:46.964Z,95681.43
2023-05-20T07:43:53.110Z,95681.60
2023-05-20T07:44:58.911Z,95680.90
2023-05-20T07:46:04.961Z,95684.56
2023-05-20T07:47:13.465Z,95680.58
2023-05-20T07:48:23.291Z,95681.98
2023-05-20T07:49:30.089Z,95680.96
2023-05-20T07:50:37.973Z,95679.60
2023-05-20T07:51:46.560Z,95680.98
2023-05-20T07:52:56.825Z,95676.61
2023-05-20T07:54:04.286Z,95678.77
2023-05-20T07:55:10.677Z,95677.31
2023-05-20T07:56:16.850Z,95677.40
2023-05-20T07:57:23.582Z,95678.19
2023-05-20T07:58:30.854Z,95680.23
2023-05-20T07:59:37.297Z,95682.44
2023-05-20T08:00:44.040Z,95680.73
2023-05-20T08:01:49.975Z,95681.76
2023-05-20T08:02:56.525Z,95685.23
2023-05-20T08:04:03.200Z,95683.59
2023-05-20T08:05:11.155Z,95687.77
2023-05-20T08:06:17.658Z,95682.75
2023-05-20T08:07:23.837Z,95681.47
2023-05-20T08:08:31.449Z,95684.55
2023-05-20T08:09:37.914Z,95682.25
2023-05-20T08:10:44.262Z,95684.35
2023-05-20T08:11:50.134Z,95682.23
2023-05-20T08:12:56.046Z,95684.29
2023-05-20T08:14:02.586Z,95681.73
2023-05-20T08:15:12.568Z,95679.20
2023-05-20T08:16:19.157Z,95679.67
2023-05-20T08:17:25.427Z,95682.48
2023-05-20T08:18:39.128Z,95674.92
2023-05-20T08:19:46.282Z,95678.94
2023-05-20T08:20:52.493Z,95681.02
2023-05-20T08:21:58.583Z,95681.52
2023-05-20T08:23:05.144Z,95686.20
2023-05-20T08:24:12.528Z,95681.76
2023-05-20T08:25:20.158Z,95685.83
2023-05-20T08:26:26.893Z,95687.42
2023-05-20T08:27:32.866Z,95687.09
2023-05-20T08:28:39.609Z,95685.00
2023-05-20T08:29:46.270Z,95682.17
2023-05-20T08:30:52.198Z,95679.84
2023-05-20T08:31:59.906Z,95682.52
2023-05-20T08:33:06.183Z,95680.77
2023-05-20T08:34:12.714Z,95683.80
2023-05-20T08:35:18.895Z,95678.64
2023-05-20T08:36:25.420Z,95678.09
2023-05-20T08:37:31.826Z,95676.20
2023-05-20T08:38:38.032Z,95679.48
2023-05-20T08:39:47.681Z,95677.19
2023-05-20T08:40:56.871Z,95678.41
2023-05-20T08:42:01.980Z,95683.13
2023-05-20T08:43:08.586Z,95681.70
2023-05-20T08:44:15.145Z,95681.70
2023-05-20T08:45:27.543Z,95681.14
2023-05-20T08:46:36.099Z,95680.52
2023-05-20T08:47:44.808Z,95685.10
2023-05-20T08:48:51.674Z,95687.10
2023-05-20T08:49:57.547Z,95685.67
2023-05-20T08:51:06.749Z,95684.08
2023-05-20T08:52:14.792Z,95681.69
2023-05-20T08:53:22.640Z,95679.03
2023-05-20T08:54:46.530Z,95677.36
2023-05-20T08:56:02.550Z,95668.29
2023-05-20T08:57:08.646Z,95671.84
2023-05-20T08:58:15.803Z,95671.67
2023-05-20T08:59:22.458Z,95675.73
2023-05-20T09:00:29.032Z,95673.65
2023-05-20T09:01:41.716Z,95674.06
2023-05-20T09:02:48.484Z,95671.44
2023-05-20T09:03:55.566Z,95672.66
2023-05-20T09:05:01.488Z,95672.73
2023-05-20T09:06:09.734Z,95674.33
2023-05-20T09:07:26.528Z,95672.40
2023-05-20T09:08:33.196Z,95673.69
2023-05-20T09:09:39.431Z,95674.14
2023-05-20T09:10:46.194Z,95676.45
2023-05-20T09:11:52.144Z,95673.96
2023-05-20T09:12:57.952Z,95675.95
2023-05-20T09:14:04.538Z,95675.61
2023-05-20T09:15:11.461Z,95675.90
2023-05-20T09:16:17.890Z,95671.10
2023-05-20T09:17:25.212Z,95667.74
2023-05-20T09:18:32.298Z,95669.56
2023-05-20T09:19:38.768Z,95668.34
2023-05-20T09:20:46.974Z,95667.52
2023-05-20T09:21:56.228Z,95663.19
2023-05-20T09:23:03.624Z,95661.31
2023-05-20T09:24:09.958Z,95665.05
2023-05-20T09:25:23.742Z,95661.77
2023-05-20T09:26:30.911Z,95658.88
2023-05-20T09:27:37.329Z,95657.08
2023-05-20T09:28:43.360Z,95660.02
2023-05-20T09:29:50.894Z,95660.25
2023-05-20T09:31:02.237Z,95657.81
2023-05-20T09:32:09.567Z,95660.23
2023-05-20T09:33:16.670Z,95658.64
2023-05-20T09:34:23.940Z,95658.64
2023-05-20T09:35:30.238Z,95659.92
2023-05-20T09:36:39.822Z,95657.52
2023-05-20T09:37:48.804Z,95653.18
2023-05-20T09:39:00.495Z,95659.92
2023-05-20T09:40:15.858Z,95657.14
2023-05-20T09:41:29.457Z,95654.02
2023-05-20T09:42:40.012Z,95653.86
2023-05-20T09:43:48.298Z,95652.98
2023-05-20T09:44:58.481Z,95649.89
2023-05-20T09:46:06.226Z,95647.59
2023-05-20T09:47:12.982Z,95646.09
2023-05-20T09:48:19.599Z,95644.09
2023-05-20T09:49:31.392Z,95648.31
2023-05-20T09:50:37.764Z,95646.71
2023-05-20T09:51:46.224Z,95646.20
2023-05-20T09:52:53.572Z,95645.77
2023-05-20T09:54:01.027Z,95642.17
2023-05-20T09:55:12.987Z,95642.31
2023-05-20T09:56:22.099Z,95642.70
2023-05-20T09:57:26.322Z,95647.85
2023-05-20T09:58:34.105Z,95647.14
2023-05-20T09:59:40.690Z,95648.60
2023-05-20T10:00:47.254Z,95646.11
2023-05-20T10:01:53.237Z,95647.70
2023-05-20T10:03:00.224Z,95645.30
2023-05-20T10:04:09.193Z,95646.16
2023-05-20T10:05:17.431Z,95645.67
2023-05-20T10:06:39.361Z,95642.30
2023-05-20T10:08:16.158Z,95642.92
2023-05-20T10:09:46.576Z,95642.00
2023-05-20T10:11:06.076Z,95643.81
2023-05-20T10:12:25.012Z,95640.91
2023-05-20T10:13:46.675Z,95637.77
2023-05-20T10:15:06.231Z,95638.70
2023-05-20T10:16:25.878Z,95635.36
2023-05-20T10:17:41.294Z,95630.98
2023-05-20T10:18:58.893Z,95630.00
2023-05-20T10:20:09.365Z,95633.21
2023-05-20T10:21:24.814Z,95631.27
2023-05-20T10:22:34.199Z,95628.79
2023-05-20T10:23:40.872Z,95627.77
2023-05-20T10:24:47.319Z,95624.05
2023-05-20T10:25:56.787Z,95624.77
2023-05-20T10:27:04.618Z,95624.92
2023-05-20T10:28:11.661Z,95623.88
2023-05-20T10:29:21.364Z,95623.56
2023-05-20T10:30:27.832Z,95622.77
2023-05-20T10:31:44.717Z,95622.00
2023-05-20T10:33:01.096Z,95622.39
2023-05-20T10:34:20.072Z,95621.29
2023-05-20T10:35:28.992Z,95621.79
2023-05-20T10:36:35.575Z,95618.38
2023-05-20T10:37:48.969Z,95616.41
2023-05-20T10:39:01.638Z,95611.73
2023-05-20T10:40:13.992Z,95610.80
2023-05-20T10:41:25.064Z,95613.15
2023-05-20T10:42:31.397Z,95612.61
2023-05-20T10:43:37.991Z,95611.36
2023-05-20T10:44:46.966Z,95608.02
2023-05-20T10:45:55.368Z,95610.75
2023-05-20T10:47:24.506Z,95609.48
2023-05-20T10:48:34.685Z,95612.21
2023-05-20T10:49:47.875Z,95611.25
2023-05-20T10:50:57.113Z,95609.10
2023-05-20T10:52:03.563Z,95608.56
2023-05-20T10:53:29.385Z,95607.86
2023-05-20T10:54:46.942Z,95598.52
2023-05-20T10:55:56.332Z,95594.11
2023-05-20T10:57:09.518Z,95589.64
2023-05-20T10:58:17.231Z,95587.21
2023-05-20T10:59:26.562Z,95585.30
2023-05-20T11:00:35.078Z,95581.72
2023-05-20T11:01:39.945Z,95577.35
2023-05-20T11:02:47.562Z,95577.21
2023-05-20T11:03:58.047Z,95576.52
2023-05-20T11:05:13.054Z,95580.75
2023-05-20T11:06:18.707Z,95581.51
2023-05-20T11:07:29.328Z,95582.20
2023-05-20T11:08:37.170Z,95583.45
2023-05-20T11:09:51.891Z,95585.38
2023-05-20T11:10:59.558Z,95583.23
2023-05-20T11:12:07.368Z,95584.37
2023-05-20T11:13:15.717Z,95581.57
2023-05-20T11:14:23.974Z,95579.67
2023-05-20T11:15:31.143Z,95576.36
2023-05-20T11:16:37.975Z,95570.59
2023-05-20T11:17:56.519Z,95570.52
2023-05-20T11:19:03.513Z,95570.34
2023-05-20T11:20:15.839Z,95567.79
2023-05-20T11:21:21.985Z,95565.40
2023-05-20T11:22:28.108Z,95562.16
2023-05-20T11:23:40.621Z,95559.55
2023-05-20T11:24:48.211Z,95556.89
2023-05-20T11:25:55.239Z,95551.34
2023-05-20T11:27:02.721Z,95554.13
2023-05-20T11:28:17.773Z,95552.41
2023-05-20T11:29:23.606Z,95546.08
2023-05-20T11:30:30.513Z,95544.61
2023-05-20T11:31:39.447Z,95540.61
2023-05-20T11:32:56.399Z,95535.13
2023-05-20T11:34:05.216Z,95532.92
2023-05-20T11:35:23.748Z,95532.20
2023-05-20T11:36:31.064Z,95519.84
2023-05-20T11:37:37.898Z,95522.47
2023-05-20T11:38:46.392Z,95520.92
2023-05-20T11:40:10.299Z,95518.80
2023-05-20T11:41:16.529Z,95515.20
2023-05-20T11:42:23.499Z,95518.36
2023-05-20T11:43:30.293Z,95514.47
2023-05-20T11:44:36.769Z,95513.88
2023-05-20T11:45:46.080Z,95512.67
2023-05-20T11:46:59.248Z,95513.58
2023-05-20T11:48:06.540Z,95508.70
2023-05-20T11:49:17.153Z,95509.38
2023-05-20T11:50:24.288Z,95506.62
2023-05-20T11:51:30.824Z,95504.02
2023-05-20T11:52:39.227Z,95505.06
2023-05-20T11:53:49.972Z,95507.52
2023-05-20T11:54:57.482Z,95507.37
2023-05-20T11:56:04.967Z,95504.23
2023-05-20T11:57:17.285Z,95501.54
2023-05-20T11:58:26.952Z,95501.05
2023-05-20T11:59:33.229Z,95497.20
2023-05-20T12:00:50.116Z,95497.10
2023-05-20T12:01:59.165Z,95499.18
2023-05-20T12:03:05.540Z,95500.55
2023-05-20T12:04:15.152Z,95502.82
2023-05-20T12:05:22.193Z,95501.84
2023-05-20T12:06:28.510Z,95498.00
2023-05-20T12:07:34.262Z,95497.41
2023-05-20T12:08:40.530Z,95495.59
2023-05-20T12:09:46.456Z,95494.41
2023-05-20T12:10:52.603Z,95496.34
2023-05-20T12:11:59.462Z,95493.92
2023-05-20T12:13:09.507Z,95491.55
2023-05-20T12:14:16.165Z,95492.58
2023-05-20T12:15:21.965Z,95495.58
2023-05-20T12:16:28.549Z,95494.29
2023-05-20T12:17:48.101Z,95491.98
2023-05-20T12:18:53.891Z,95490.30
2023-05-20T12:20:00.136Z,95489.95
2023-05-20T12:21:06.753Z,95490.09
2023-05-20T12:22:12.869Z,95487.23
2023-05-20T12:23:19.516Z,95484.81
2023-05-20T12:24:25.924Z,95482.20
2023-05-20T12:25:32.264Z,95481.37
2023-05-20T12:26:38.996Z,95475.83
2023-05-20T12:27:48.533Z,95473.18
2023-05-20T12:28:55.212Z,95475.98
2023-05-20T12:30:01.855Z,95474.83
2023-05-20T12:31:09.028Z,95480.15
2023-05-20T12:32:15.251Z,95481.84
2023-05-20T12:33:21.482Z,95483.10
2023-05-20T12:34:27.719Z,95477.16
2023-05-20T12:35:42.029Z,95474.78
2023-05-20T12:36:51.490Z,95473.04
2023-05-20T12:37:57.416Z,95473.49
2023-05-20T12:39:05.464Z,95470.14
2023-05-20T12:40:14.025Z,95472.64
2023-05-20T12:41:20.486Z,95468.77
2023-05-20T12:42:27.984Z,95463.62
2023-05-20T12:43:36.928Z,95464.16
2023-05-20T12:44:43.557Z,95462.38
2023-05-20T12:45:51.323Z,95460.05
2023-05-20T12:46:58.013Z,95459.06
2023-05-20T12:48:06.121Z,95455.95
2023-05-20T12:49:12.584Z,95457.48
2023-05-20T12:50:18.569Z,95455.85
2023-05-20T12:51:26.417Z,95453.59
2023-05-20T12:52:32.569Z,95455.36
2023-05-20T12:53:40.342Z,95460.45
2023-05-20T12:54:46.462Z,95458.17
2023-05-20T12:55:52.596Z,95454.63
2023-05-20T12:56:59.120Z,95452.98
2023-05-20T12:58:04.829Z,95455.07
2023-05-20T12:59:10.952Z,95462.60
2023-05-20T13:00:18.805Z,95465.05
2023-05-20T13:01:24.921Z,95466.47
2023-05-20T13:02:32.187Z,95465.66
2023-05-20T13:03:38.722Z,95463.14
2023-05-20T13:04:49.017Z,95460.29
2023-05-20T13:05:59.010Z,95459.71
2023-05-20T13:07:05.885Z,95460.94
2023-05-20T13:08:12.941Z,95468.42
2023-05-20T13:09:19.246Z,95461.85
2023-05-20T13:10:25.759Z,95462.77
2023-05-20T13:11:31.531Z,95465.41
2023-05-20T13:12:38.520Z,95467.27
2023-05-20T13:13:44.289Z,95461.90
2023-05-20T13:14:50.047Z,95462.12
2023-05-20T13:15:56.127Z,95460.48
2023-05-20T13:17:02.447Z,95460.13